Accueil
METAR-TAF:

METAR-TAF

Aéroports :

Ranchi, Inde

latitude: 23-18-51N, longitude: 85-19-18E, altitude: 646 m

Observation

Le bulletin a été fait il y a 11 minutes, à 03:00 UTC
Vent calme
Température 27°C
Humidité 48%
Pression 1014 hPa
Visibilité: 5000 m
brume sèche

METAR: VERC 080300Z 00000KT 5000 HZ NSC 27/15 Q1014 NOSIG

Heure: 08:41 (03:11 UTC)

Prévision

Le bulletin a été fait il y a 1 heure et 11 minutes, à 02:00 UTC
Prévision valable du 08 à 03 UTC au 08 à 12 UTC
Vent 3 kt de direction variable
Visibilité: 5000 m
Quelques nuages à une hauteur de 1800 ft
Nuages épars à une hauteur de 10000 ft
brume sèche
Evoluant progressivement
du 08 à 08 UTC au 08 à 10 UTC
Vent 10 kt de ouest
Quelques nuages à une hauteur de 10000 ft

TAF: VERC 080200Z 0803/0812 VRB03KT 5000 HZ FEW018 SCT100 BECMG 0808/0810 27010KT FEW100

Observations et prévisions météorologiques de plus de 4000 aéroports (messages METAR et TAF).

Les stations disponibles sont représentées par des disques jaunes et rouges sur la carte.

Passer la souris dessus pour voir le nom de la station.

Cliquer dessus pour voir les observations et prévisions météorologiques.

Pour changer de carte: cliquez sur les boutons verts avec une croix noire pour zoomer, sur le bouton vert avec un tiret pour effectuer un zoom arrière, ou sur les flèches vertes pour les cartes adjacentes.


METAR-TAF: